Bernalillo, NM (87004)

12:14 PM MDT on May 24, 2015 (GMT -0600)
Villas de las Huertas | | Change Station
CLOSE
Current Station
Personal Weather Station
Location: Placitas, NM
Elevation: 6290 ft
Nearby Weather Stations

Elev 6290 ft 35.30 °N, 106.41 °W | Updated 43 minutes ago

Partly Cloudy
Partly Cloudy
60.0 °F
Feels Like 60.0 °F
N
11.0
Wind Variable Wind from NW
Gusts 20.0 mph

Today
High -- | Low -- °F
--% Chance of Precip.
Yesterday
High -- | Low -- °F
Precip. -- in
5:55 AM 8:09 PM
Waxing Crescent, 41% visible
Pressure 29.81 in
Visibility 10.0 miles
Clouds Scattered Clouds 5500 ft
Scattered Clouds 22000 ft
Dew Point 38 °F
Humidity 44%
Rainfall 0.00 in
Snow Depth Not available.
UV 8.1 out of 12
Pollen 4.60 out of 12
Air Quality Not available.
Flu Activity Local Activity
METAR KABQ 241752Z 22007KT 190V250 10SM SCT055 SCT220 17/01 A2998 RMK AO2 SLP094 T01720011 10178 20083 58008

More Conditions Fewer Conditions

Pressure 29.81 in
Visibility 10.0 miles
Clouds Scattered Clouds 5500 ft
Scattered Clouds 22000 ft
Dew Point 38 °F
Humidity 44%
Rainfall 0.00 in
Snow Depth Not available.
UV 8.1 out of 12
Pollen 4.60 out of 12
Air Quality Not available.
Flu Activity Local Activity
METAR KABQ 241752Z 22007KT 190V250 10SM SCT055 SCT220 17/01 A2998 RMK AO2 SLP094 T01720011 10178 20083 58008

More Conditions Fewer Conditions

10-Day Weather Forecast

Almanac

Astronomy

May. 24, 2015 Rise Set
Actual Time
Civil Twilight
Nautical Twilight
Astronomical Twilight
Moon
Length of Visible Light
Length of Day
Tomorrow will be .
, % of the Moon is Illuminated

Today's Extremes

State Highs State Lows

Community

WunderPhotos

Upload Photos

1,823,817 photos uploaded!

WunderBlogs® & News

Nearby

Air Quality

  Air Quality AQ Index Pollutant
Not available.

Snow Depth

Station Depth Elevation

Earthquake Activity

City Distance Mag. Time & Date
Minimum magnitude displayed is 2.5.

Coastal Water Temperatures

Place Temperature

Stations

Nearby Weather Stations

Station Location Temp. Windchill Dew Point Humidity Wind Precip. Elev Updated Type